sensor_id;sensor_type;location;lat;lon;timestamp;P1;durP1;ratioP1;P2;durP2;ratioP2
74108;SDS011;62466;47.566;7.786;2022-11-20T00:00:24;2.85;;;2.45;;
74108;SDS011;62466;47.566;7.786;2022-11-20T00:02:50;2.95;;;2.75;;
74108;SDS011;62466;47.566;7.786;2022-11-20T00:05:16;3.03;;;2.70;;
74108;SDS011;62466;47.566;7.786;2022-11-20T00:07:42;2.60;;;2.40;;
74108;SDS011;62466;47.566;7.786;2022-11-20T00:10:07;3.33;;;2.55;;
74108;SDS011;62466;47.566;7.786;2022-11-20T00:12:35;4.10;;;2.95;;
74108;SDS011;62466;47.566;7.786;2022-11-20T00:15:01;3.13;;;2.92;;
74108;SDS011;62466;47.566;7.786;2022-11-20T00:17:26;2.78;;;2.58;;
74108;SDS011;62466;47.566;7.786;2022-11-20T00:19:52;3.08;;;2.53;;
74108;SDS011;62466;47.566;7.786;2022-11-20T00:22:17;4.72;;;2.75;;
74108;SDS011;62466;47.566;7.786;2022-11-20T00:24:43;2.60;;;2.45;;
74108;SDS011;62466;47.566;7.786;2022-11-20T00:27:09;3.17;;;2.60;;
74108;SDS011;62466;47.566;7.786;2022-11-20T00:29:35;3.08;;;2.55;;
74108;SDS011;62466;47.566;7.786;2022-11-20T00:32:00;2.88;;;2.67;;
74108;SDS011;62466;47.566;7.786;2022-11-20T00:34:28;3.50;;;2.63;;
74108;SDS011;62466;47.566;7.786;2022-11-20T00:36:54;3.42;;;2.58;;
74108;SDS011;62466;47.566;7.786;2022-11-20T00:39:19;2.83;;;2.33;;
74108;SDS011;62466;47.566;7.786;2022-11-20T00:41:48;2.90;;;2.70;;
74108;SDS011;62466;47.566;7.786;2022-11-20T00:44:13;3.97;;;2.55;;
74108;SDS011;62466;47.566;7.786;2022-11-20T00:46:39;3.30;;;2.97;;
74108;SDS011;62466;47.566;7.786;2022-11-20T00:49:04;4.28;;;2.47;;
74108;SDS011;62466;47.566;7.786;2022-11-20T00:51:30;3.00;;;2.80;;
74108;SDS011;62466;47.566;7.786;2022-11-20T00:53:56;2.90;;;2.70;;
74108;SDS011;62466;47.566;7.786;2022-11-20T00:56:22;2.50;;;2.30;;
74108;SDS011;62466;47.566;7.786;2022-11-20T00:58:48;3.28;;;2.60;;
74108;SDS011;62466;47.566;7.786;2022-11-20T01:01:18;3.47;;;3.17;;
74108;SDS011;62466;47.566;7.786;2022-11-20T01:03:51;2.50;;;2.30;;
74108;SDS011;62466;47.566;7.786;2022-11-20T01:06:20;3.08;;;2.60;;
74108;SDS011;62466;47.566;7.786;2022-11-20T01:08:50;2.75;;;2.22;;
74108;SDS011;62466;47.566;7.786;2022-11-20T01:11:18;2.60;;;2.35;;
74108;SDS011;62466;47.566;7.786;2022-11-20T01:13:47;2.50;;;2.30;;
74108;SDS011;62466;47.566;7.786;2022-11-20T01:18:41;3.08;;;2.38;;
74108;SDS011;62466;47.566;7.786;2022-11-20T01:21:10;2.88;;;2.67;;
74108;SDS011;62466;47.566;7.786;2022-11-20T01:23:38;2.70;;;2.50;;
74108;SDS011;62466;47.566;7.786;2022-11-20T01:26:06;2.47;;;2.35;;
74108;SDS011;62466;47.566;7.786;2022-11-20T01:28:33;1.90;;;1.80;;
74108;SDS011;62466;47.566;7.786;2022-11-20T01:30:59;2.65;;;2.20;;
74108;SDS011;62466;47.566;7.786;2022-11-20T01:33:28;2.72;;;2.20;;
74108;SDS011;62466;47.566;7.786;2022-11-20T01:36:02;2.33;;;2.20;;
74108;SDS011;62466;47.566;7.786;2022-11-20T01:38:29;2.42;;;2.33;;
74108;SDS011;62466;47.566;7.786;2022-11-20T01:40:55;2.30;;;2.20;;
74108;SDS011;62466;47.566;7.786;2022-11-20T01:43:21;2.10;;;2.00;;
74108;SDS011;62466;47.566;7.786;2022-11-20T01:53:55;2.20;;;2.10;;
74108;SDS011;62466;47.566;7.786;2022-11-20T01:56:22;2.42;;;2.28;;
74108;SDS011;62466;47.566;7.786;2022-11-20T01:58:49;2.05;;;1.95;;
74108;SDS011;62466;47.566;7.786;2022-11-20T02:01:17;2.33;;;2.20;;
74108;SDS011;62466;47.566;7.786;2022-11-20T02:03:45;2.35;;;2.25;;
74108;SDS011;62466;47.566;7.786;2022-11-20T02:06:14;2.10;;;1.92;;
74108;SDS011;62466;47.566;7.786;2022-11-20T02:08:44;2.00;;;1.90;;
74108;SDS011;62466;47.566;7.786;2022-11-20T02:11:10;1.90;;;1.80;;
74108;SDS011;62466;47.566;7.786;2022-11-20T02:13:37;2.35;;;2.10;;
74108;SDS011;62466;47.566;7.786;2022-11-20T02:16:14;2.78;;;2.03;;
74108;SDS011;62466;47.566;7.786;2022-11-20T02:18:44;2.67;;;2.20;;
74108;SDS011;62466;47.566;7.786;2022-11-20T02:21:19;2.50;;;2.20;;
74108;SDS011;62466;47.566;7.786;2022-11-20T02:26:43;2.13;;;2.03;;
74108;SDS011;62466;47.566;7.786;2022-11-20T02:29:13;2.20;;;2.10;;
74108;SDS011;62466;47.566;7.786;2022-11-20T02:31:41;2.13;;;2.00;;
74108;SDS011;62466;47.566;7.786;2022-11-20T02:34:07;3.63;;;2.40;;
74108;SDS011;62466;47.566;7.786;2022-11-20T02:36:33;2.30;;;2.20;;
74108;SDS011;62466;47.566;7.786;2022-11-20T02:39:00;2.30;;;2.20;;
74108;SDS011;62466;47.566;7.786;2022-11-20T02:41:30;3.40;;;2.42;;
74108;SDS011;62466;47.566;7.786;2022-11-20T02:43:57;3.08;;;2.20;;
74108;SDS011;62466;47.566;7.786;2022-11-20T02:46:23;2.80;;;2.60;;
74108;SDS011;62466;47.566;7.786;2022-11-20T02:48:48;2.33;;;2.10;;
74108;SDS011;62466;47.566;7.786;2022-11-20T02:51:14;2.53;;;2.40;;
74108;SDS011;62466;47.566;7.786;2022-11-20T02:53:39;2.20;;;2.10;;
74108;SDS011;62466;47.566;7.786;2022-11-20T02:56:05;3.38;;;2.55;;
74108;SDS011;62466;47.566;7.786;2022-11-20T02:58:34;4.63;;;2.38;;
74108;SDS011;62466;47.566;7.786;2022-11-20T03:00:59;2.33;;;2.22;;
74108;SDS011;62466;47.566;7.786;2022-11-20T03:03:25;2.42;;;2.22;;
74108;SDS011;62466;47.566;7.786;2022-11-20T03:05:50;2.80;;;2.60;;
74108;SDS011;62466;47.566;7.786;2022-11-20T03:08:16;2.17;;;2.08;;
74108;SDS011;62466;47.566;7.786;2022-11-20T03:10:42;2.47;;;1.92;;
74108;SDS011;62466;47.566;7.786;2022-11-20T03:13:07;2.10;;;2.00;;
74108;SDS011;62466;47.566;7.786;2022-11-20T03:15:33;2.33;;;2.22;;
74108;SDS011;62466;47.566;7.786;2022-11-20T03:17:58;3.65;;;2.30;;
74108;SDS011;62466;47.566;7.786;2022-11-20T03:20:27;2.65;;;2.40;;
74108;SDS011;62466;47.566;7.786;2022-11-20T03:22:53;4.68;;;2.55;;
74108;SDS011;62466;47.566;7.786;2022-11-20T03:25:20;2.47;;;2.33;;
74108;SDS011;62466;47.566;7.786;2022-11-20T03:27:46;2.70;;;2.50;;
74108;SDS011;62466;47.566;7.786;2022-11-20T03:30:12;2.58;;;2.38;;
74108;SDS011;62466;47.566;7.786;2022-11-20T03:32:38;2.53;;;2.42;;
74108;SDS011;62466;47.566;7.786;2022-11-20T03:35:03;2.47;;;2.28;;
74108;SDS011;62466;47.566;7.786;2022-11-20T03:37:29;2.35;;;2.25;;
74108;SDS011;62466;47.566;7.786;2022-11-20T03:39:55;2.58;;;2.30;;
74108;SDS011;62466;47.566;7.786;2022-11-20T03:42:21;2.33;;;2.22;;
74108;SDS011;62466;47.566;7.786;2022-11-20T03:45:05;3.35;;;3.03;;
74108;SDS011;62466;47.566;7.786;2022-11-20T03:47:30;2.20;;;2.10;;
74108;SDS011;62466;47.566;7.786;2022-11-20T03:49:56;2.30;;;2.10;;
74108;SDS011;62466;47.566;7.786;2022-11-20T03:52:22;3.50;;;2.15;;
74108;SDS011;62466;47.566;7.786;2022-11-20T03:54:47;5.10;;;2.60;;
74108;SDS011;62466;47.566;7.786;2022-11-20T03:57:13;2.60;;;2.40;;
74108;SDS011;62466;47.566;7.786;2022-11-20T03:59:38;2.50;;;2.35;;
74108;SDS011;62466;47.566;7.786;2022-11-20T04:02:04;4.00;;;2.75;;
74108;SDS011;62466;47.566;7.786;2022-11-20T04:04:29;3.22;;;2.47;;
74108;SDS011;62466;47.566;7.786;2022-11-20T04:06:55;2.90;;;2.28;;
74108;SDS011;62466;47.566;7.786;2022-11-20T04:09:21;2.10;;;2.00;;
74108;SDS011;62466;47.566;7.786;2022-11-20T04:11:46;2.25;;;2.08;;
74108;SDS011;62466;47.566;7.786;2022-11-20T04:14:15;3.15;;;2.35;;
74108;SDS011;62466;47.566;7.786;2022-11-20T04:16:41;4.38;;;2.33;;
74108;SDS011;62466;47.566;7.786;2022-11-20T04:19:09;3.97;;;2.17;;
74108;SDS011;62466;47.566;7.786;2022-11-20T04:21:36;2.60;;;2.20;;
74108;SDS011;62466;47.566;7.786;2022-11-20T04:24:02;2.15;;;2.05;;
74108;SDS011;62466;47.566;7.786;2022-11-20T04:26:29;2.85;;;2.10;;
74108;SDS011;62466;47.566;7.786;2022-11-20T04:28:55;2.20;;;2.10;;
74108;SDS011;62466;47.566;7.786;2022-11-20T04:31:24;2.08;;;2.00;;
74108;SDS011;62466;47.566;7.786;2022-11-20T04:33:53;2.15;;;2.00;;
74108;SDS011;62466;47.566;7.786;2022-11-20T04:36:20;2.20;;;2.10;;
74108;SDS011;62466;47.566;7.786;2022-11-20T04:38:49;2.38;;;1.83;;
74108;SDS011;62466;47.566;7.786;2022-11-20T04:41:19;1.95;;;1.85;;
74108;SDS011;62466;47.566;7.786;2022-11-20T04:43:46;2.85;;;2.60;;
74108;SDS011;62466;47.566;7.786;2022-11-20T04:46:16;2.60;;;2.40;;
74108;SDS011;62466;47.566;7.786;2022-11-20T04:48:42;2.83;;;2.55;;
74108;SDS011;62466;47.566;7.786;2022-11-20T04:51:08;4.53;;;2.60;;
74108;SDS011;62466;47.566;7.786;2022-11-20T04:53:34;2.42;;;2.20;;
74108;SDS011;62466;47.566;7.786;2022-11-20T04:56:00;2.28;;;2.10;;
74108;SDS011;62466;47.566;7.786;2022-11-20T04:58:27;2.72;;;2.53;;
74108;SDS011;62466;47.566;7.786;2022-11-20T05:00:52;2.50;;;2.30;;
74108;SDS011;62466;47.566;7.786;2022-11-20T05:03:18;2.45;;;2.25;;
74108;SDS011;62466;47.566;7.786;2022-11-20T05:05:44;2.42;;;2.22;;
74108;SDS011;62466;47.566;7.786;2022-11-20T05:08:09;2.20;;;2.10;;
74108;SDS011;62466;47.566;7.786;2022-11-20T05:10:35;2.33;;;2.22;;
74108;SDS011;62466;47.566;7.786;2022-11-20T05:13:00;2.25;;;2.05;;
74108;SDS011;62466;47.566;7.786;2022-11-20T05:15:26;2.53;;;2.42;;
74108;SDS011;62466;47.566;7.786;2022-11-20T05:17:51;2.55;;;2.35;;
74108;SDS011;62466;47.566;7.786;2022-11-20T05:20:17;3.28;;;2.38;;
74108;SDS011;62466;47.566;7.786;2022-11-20T05:22:43;2.58;;;2.35;;
74108;SDS011;62466;47.566;7.786;2022-11-20T05:25:09;2.38;;;2.28;;
74108;SDS011;62466;47.566;7.786;2022-11-20T05:27:36;3.03;;;2.75;;
74108;SDS011;62466;47.566;7.786;2022-11-20T05:30:02;3.05;;;2.33;;
74108;SDS011;62466;47.566;7.786;2022-11-20T05:32:28;2.17;;;2.08;;
74108;SDS011;62466;47.566;7.786;2022-11-20T05:34:54;2.88;;;2.42;;
74108;SDS011;62466;47.566;7.786;2022-11-20T05:37:19;3.15;;;2.25;;
74108;SDS011;62466;47.566;7.786;2022-11-20T05:39:45;2.20;;;2.10;;
74108;SDS011;62466;47.566;7.786;2022-11-20T05:42:10;2.30;;;2.20;;
74108;SDS011;62466;47.566;7.786;2022-11-20T05:44:54;2.53;;;2.33;;
74108;SDS011;62466;47.566;7.786;2022-11-20T05:47:20;2.20;;;2.00;;
74108;SDS011;62466;47.566;7.786;2022-11-20T05:49:46;2.47;;;2.30;;
74108;SDS011;62466;47.566;7.786;2022-11-20T05:52:11;2.75;;;2.35;;
74108;SDS011;62466;47.566;7.786;2022-11-20T05:54:37;2.38;;;2.28;;
74108;SDS011;62466;47.566;7.786;2022-11-20T05:57:03;2.38;;;2.28;;
74108;SDS011;62466;47.566;7.786;2022-11-20T05:59:28;2.47;;;2.28;;
74108;SDS011;62466;47.566;7.786;2022-11-20T06:01:57;2.53;;;2.35;;
74108;SDS011;62466;47.566;7.786;2022-11-20T06:04:22;2.33;;;2.17;;
74108;SDS011;62466;47.566;7.786;2022-11-20T06:06:48;2.55;;;2.40;;
74108;SDS011;62466;47.566;7.786;2022-11-20T06:09:14;2.33;;;2.22;;
74108;SDS011;62466;47.566;7.786;2022-11-20T06:11:39;2.20;;;2.10;;
74108;SDS011;62466;47.566;7.786;2022-11-20T06:14:05;2.10;;;2.00;;
74108;SDS011;62466;47.566;7.786;2022-11-20T06:16:31;2.50;;;2.40;;
74108;SDS011;62466;47.566;7.786;2022-11-20T06:18:57;2.30;;;2.10;;
74108;SDS011;62466;47.566;7.786;2022-11-20T06:21:22;2.35;;;2.17;;
74108;SDS011;62466;47.566;7.786;2022-11-20T06:23:49;2.20;;;2.10;;
74108;SDS011;62466;47.566;7.786;2022-11-20T06:26:16;2.17;;;2.08;;
74108;SDS011;62466;47.566;7.786;2022-11-20T06:28:44;2.35;;;2.25;;
74108;SDS011;62466;47.566;7.786;2022-11-20T06:31:11;2.28;;;2.08;;
74108;SDS011;62466;47.566;7.786;2022-11-20T06:33:40;2.55;;;2.25;;
74108;SDS011;62466;47.566;7.786;2022-11-20T06:36:06;2.63;;;2.42;;
74108;SDS011;62466;47.566;7.786;2022-11-20T06:38:32;2.50;;;2.40;;
74108;SDS011;62466;47.566;7.786;2022-11-20T06:40:57;2.42;;;2.03;;
74108;SDS011;62466;47.566;7.786;2022-11-20T06:43:23;2.30;;;2.08;;
74108;SDS011;62466;47.566;7.786;2022-11-20T06:45:55;2.90;;;2.70;;
74108;SDS011;62466;47.566;7.786;2022-11-20T06:48:22;3.05;;;2.80;;
74108;SDS011;62466;47.566;7.786;2022-11-20T06:50:48;2.72;;;2.28;;
74108;SDS011;62466;47.566;7.786;2022-11-20T06:53:13;2.90;;;2.70;;
74108;SDS011;62466;47.566;7.786;2022-11-20T06:55:43;7.68;;;4.85;;
74108;SDS011;62466;47.566;7.786;2022-11-20T06:58:09;6.63;;;4.70;;
74108;SDS011;62466;47.566;7.786;2022-11-20T07:00:35;7.45;;;5.10;;
74108;SDS011;62466;47.566;7.786;2022-11-20T07:03:04;3.80;;;3.50;;
74108;SDS011;62466;47.566;7.786;2022-11-20T07:05:30;2.97;;;2.78;;
74108;SDS011;62466;47.566;7.786;2022-11-20T07:07:56;4.78;;;2.80;;
74108;SDS011;62466;47.566;7.786;2022-11-20T07:10:22;4.53;;;3.45;;
74108;SDS011;62466;47.566;7.786;2022-11-20T07:12:51;4.32;;;3.35;;
74108;SDS011;62466;47.566;7.786;2022-11-20T07:15:17;6.13;;;3.50;;
74108;SDS011;62466;47.566;7.786;2022-11-20T07:17:43;4.55;;;2.65;;
74108;SDS011;62466;47.566;7.786;2022-11-20T07:20:09;4.72;;;3.30;;
74108;SDS011;62466;47.566;7.786;2022-11-20T07:22:38;4.45;;;3.33;;
74108;SDS011;62466;47.566;7.786;2022-11-20T07:25:04;3.67;;;2.80;;
74108;SDS011;62466;47.566;7.786;2022-11-20T07:27:31;3.35;;;3.05;;
74108;SDS011;62466;47.566;7.786;2022-11-20T07:29:57;2.67;;;2.50;;
74108;SDS011;62466;47.566;7.786;2022-11-20T07:32:25;3.45;;;3.15;;
74108;SDS011;62466;47.566;7.786;2022-11-20T07:34:50;2.80;;;2.60;;
74108;SDS011;62466;47.566;7.786;2022-11-20T07:37:16;2.80;;;2.70;;
74108;SDS011;62466;47.566;7.786;2022-11-20T07:39:44;3.15;;;2.35;;
74108;SDS011;62466;47.566;7.786;2022-11-20T07:42:52;2.40;;;2.20;;
74108;SDS011;62466;47.566;7.786;2022-11-20T07:45:22;2.30;;;2.10;;
74108;SDS011;62466;47.566;7.786;2022-11-20T07:48:03;2.28;;;2.17;;
74108;SDS011;62466;47.566;7.786;2022-11-20T07:50:48;3.30;;;2.35;;
74108;SDS011;62466;47.566;7.786;2022-11-20T07:53:32;4.57;;;2.10;;
74108;SDS011;62466;47.566;7.786;2022-11-20T07:56:01;2.20;;;2.10;;
74108;SDS011;62466;47.566;7.786;2022-11-20T07:58:40;2.25;;;1.92;;
74108;SDS011;62466;47.566;7.786;2022-11-20T08:07:19;1.92;;;1.83;;
74108;SDS011;62466;47.566;7.786;2022-11-20T08:13:18;2.35;;;2.15;;
74108;SDS011;62466;47.566;7.786;2022-11-20T08:16:08;2.30;;;2.15;;
74108;SDS011;62466;47.566;7.786;2022-11-20T08:19:02;2.47;;;2.28;;
74108;SDS011;62466;47.566;7.786;2022-11-20T08:21:43;3.58;;;2.53;;
74108;SDS011;62466;47.566;7.786;2022-11-20T08:24:15;2.00;;;1.90;;
74108;SDS011;62466;47.566;7.786;2022-11-20T08:26:49;1.95;;;1.85;;
74108;SDS011;62466;47.566;7.786;2022-11-20T08:29:28;2.03;;;1.90;;
74108;SDS011;62466;47.566;7.786;2022-11-20T08:31:55;2.40;;;2.20;;
74108;SDS011;62466;47.566;7.786;2022-11-20T08:34:29;2.35;;;2.20;;
74108;SDS011;62466;47.566;7.786;2022-11-20T08:36:57;2.75;;;2.55;;
74108;SDS011;62466;47.566;7.786;2022-11-20T08:39:24;2.28;;;2.08;;
74108;SDS011;62466;47.566;7.786;2022-11-20T08:41:54;2.10;;;2.00;;
74108;SDS011;62466;47.566;7.786;2022-11-20T08:44:34;2.60;;;2.10;;
74108;SDS011;62466;47.566;7.786;2022-11-20T08:47:10;1.92;;;1.83;;
74108;SDS011;62466;47.566;7.786;2022-11-20T08:49:39;3.80;;;2.20;;
74108;SDS011;62466;47.566;7.786;2022-11-20T08:52:07;2.75;;;2.40;;
74108;SDS011;62466;47.566;7.786;2022-11-20T08:57:48;2.10;;;2.00;;
74108;SDS011;62466;47.566;7.786;2022-11-20T09:00:14;2.70;;;2.03;;
74108;SDS011;62466;47.566;7.786;2022-11-20T09:02:46;2.47;;;2.30;;
74108;SDS011;62466;47.566;7.786;2022-11-20T09:05:17;2.30;;;2.10;;
74108;SDS011;62466;47.566;7.786;2022-11-20T09:07:49;2.00;;;1.90;;
74108;SDS011;62466;47.566;7.786;2022-11-20T09:10:18;2.50;;;2.30;;
74108;SDS011;62466;47.566;7.786;2022-11-20T09:13:08;2.97;;;2.25;;
74108;SDS011;62466;47.566;7.786;2022-11-20T09:15:47;3.53;;;2.53;;
74108;SDS011;62466;47.566;7.786;2022-11-20T09:18:28;3.53;;;2.55;;
74108;SDS011;62466;47.566;7.786;2022-11-20T09:21:08;2.22;;;2.08;;
74108;SDS011;62466;47.566;7.786;2022-11-20T09:23:40;1.98;;;1.88;;
74108;SDS011;62466;47.566;7.786;2022-11-20T09:26:19;2.17;;;2.08;;
74108;SDS011;62466;47.566;7.786;2022-11-20T09:28:50;1.75;;;1.60;;
74108;SDS011;62466;47.566;7.786;2022-11-20T09:31:58;1.90;;;1.80;;
74108;SDS011;62466;47.566;7.786;2022-11-20T09:34:38;1.70;;;1.60;;
74108;SDS011;62466;47.566;7.786;2022-11-20T09:37:11;2.10;;;2.00;;
74108;SDS011;62466;47.566;7.786;2022-11-20T09:39:37;1.73;;;1.63;;
74108;SDS011;62466;47.566;7.786;2022-11-20T09:53:19;2.47;;;2.22;;
74108;SDS011;62466;47.566;7.786;2022-11-20T09:55:49;3.70;;;2.28;;
74108;SDS011;62466;47.566;7.786;2022-11-20T10:00:49;2.00;;;1.90;;
74108;SDS011;62466;47.566;7.786;2022-11-20T10:03:26;2.28;;;2.08;;
74108;SDS011;62466;47.566;7.786;2022-11-20T10:06:01;2.60;;;2.10;;
74108;SDS011;62466;47.566;7.786;2022-11-20T10:08:28;1.83;;;1.73;;
74108;SDS011;62466;47.566;7.786;2022-11-20T10:17:08;1.85;;;1.75;;
74108;SDS011;62466;47.566;7.786;2022-11-20T10:22:15;2.22;;;2.03;;
74108;SDS011;62466;47.566;7.786;2022-11-20T10:30:48;2.60;;;2.40;;
74108;SDS011;62466;47.566;7.786;2022-11-20T10:33:23;1.83;;;1.73;;
74108;SDS011;62466;47.566;7.786;2022-11-20T10:35:52;1.90;;;1.80;;
74108;SDS011;62466;47.566;7.786;2022-11-20T10:38:45;2.47;;;2.20;;
74108;SDS011;62466;47.566;7.786;2022-11-20T10:41:17;3.25;;;2.20;;
74108;SDS011;62466;47.566;7.786;2022-11-20T10:43:52;4.15;;;2.10;;
74108;SDS011;62466;47.566;7.786;2022-11-20T10:46:22;2.42;;;2.20;;
74108;SDS011;62466;47.566;7.786;2022-11-20T10:48:49;2.42;;;2.20;;
74108;SDS011;62466;47.566;7.786;2022-11-20T10:51:17;3.17;;;2.22;;
74108;SDS011;62466;47.566;7.786;2022-11-20T10:59:10;2.30;;;2.15;;
74108;SDS011;62466;47.566;7.786;2022-11-20T11:01:48;2.50;;;2.15;;
74108;SDS011;62466;47.566;7.786;2022-11-20T11:04:30;4.93;;;3.00;;
74108;SDS011;62466;47.566;7.786;2022-11-20T11:07:02;2.45;;;2.25;;
74108;SDS011;62466;47.566;7.786;2022-11-20T11:09:46;2.50;;;2.30;;
74108;SDS011;62466;47.566;7.786;2022-11-20T11:12:14;3.13;;;2.65;;
74108;SDS011;62466;47.566;7.786;2022-11-20T11:14:47;2.67;;;2.40;;
74108;SDS011;62466;47.566;7.786;2022-11-20T11:17:27;2.50;;;2.30;;
74108;SDS011;62466;47.566;7.786;2022-11-20T11:22:42;2.92;;;2.10;;
74108;SDS011;62466;47.566;7.786;2022-11-20T11:25:20;3.60;;;1.95;;
74108;SDS011;62466;47.566;7.786;2022-11-20T11:30:43;3.33;;;2.30;;
74108;SDS011;62466;47.566;7.786;2022-11-20T11:33:10;2.05;;;1.95;;
74108;SDS011;62466;47.566;7.786;2022-11-20T11:35:47;2.10;;;1.80;;
74108;SDS011;62466;47.566;7.786;2022-11-20T11:38:36;2.63;;;2.08;;
74108;SDS011;62466;47.566;7.786;2022-11-20T11:41:05;2.30;;;2.20;;
74108;SDS011;62466;47.566;7.786;2022-11-20T11:43:35;2.80;;;2.50;;
74108;SDS011;62466;47.566;7.786;2022-11-20T11:46:30;2.50;;;2.10;;
74108;SDS011;62466;47.566;7.786;2022-11-20T11:51:59;3.30;;;1.90;;
74108;SDS011;62466;47.566;7.786;2022-11-20T11:54:58;3.22;;;2.17;;
74108;SDS011;62466;47.566;7.786;2022-11-20T12:07:55;1.98;;;1.80;;
74108;SDS011;62466;47.566;7.786;2022-11-20T12:10:42;3.88;;;1.95;;
74108;SDS011;62466;47.566;7.786;2022-11-20T12:13:30;1.90;;;1.80;;
74108;SDS011;62466;47.566;7.786;2022-11-20T12:15:59;3.28;;;2.00;;
74108;SDS011;62466;47.566;7.786;2022-11-20T12:18:26;1.70;;;1.65;;
74108;SDS011;62466;47.566;7.786;2022-11-20T12:34:43;2.15;;;1.77;;
74108;SDS011;62466;47.566;7.786;2022-11-20T12:42:50;1.83;;;1.70;;
74108;SDS011;62466;47.566;7.786;2022-11-20T12:45:46;3.30;;;1.80;;
74108;SDS011;62466;47.566;7.786;2022-11-20T12:48:54;1.40;;;1.30;;
74108;SDS011;62466;47.566;7.786;2022-11-20T12:54:05;3.05;;;1.92;;
74108;SDS011;62466;47.566;7.786;2022-11-20T12:56:50;1.73;;;1.60;;
74108;SDS011;62466;47.566;7.786;2022-11-20T13:02:05;2.20;;;2.10;;
74108;SDS011;62466;47.566;7.786;2022-11-20T13:07:25;2.00;;;1.83;;
74108;SDS011;62466;47.566;7.786;2022-11-20T13:09:52;2.38;;;1.73;;
74108;SDS011;62466;47.566;7.786;2022-11-20T13:17:54;2.92;;;1.95;;
74108;SDS011;62466;47.566;7.786;2022-11-20T13:20:21;1.77;;;1.65;;
74108;SDS011;62466;47.566;7.786;2022-11-20T13:22:51;1.80;;;1.70;;
74108;SDS011;62466;47.566;7.786;2022-11-20T13:25:27;3.15;;;1.83;;
74108;SDS011;62466;47.566;7.786;2022-11-20T13:27:58;1.90;;;1.80;;
74108;SDS011;62466;47.566;7.786;2022-11-20T13:30:25;1.92;;;1.83;;
74108;SDS011;62466;47.566;7.786;2022-11-20T13:35:28;2.88;;;1.70;;
74108;SDS011;62466;47.566;7.786;2022-11-20T13:38:05;1.60;;;1.50;;
74108;SDS011;62466;47.566;7.786;2022-11-20T13:40:54;1.35;;;1.25;;
74108;SDS011;62466;47.566;7.786;2022-11-20T13:43:46;2.27;;;1.23;;
74108;SDS011;62466;47.566;7.786;2022-11-20T13:46:13;1.73;;;1.58;;
74108;SDS011;62466;47.566;7.786;2022-11-20T13:48:43;1.10;;;1.10;;
74108;SDS011;62466;47.566;7.786;2022-11-20T13:59:40;1.23;;;1.13;;
74108;SDS011;62466;47.566;7.786;2022-11-20T14:02:25;0.93;;;0.93;;
74108;SDS011;62466;47.566;7.786;2022-11-20T14:04:52;1.48;;;0.90;;
74108;SDS011;62466;47.566;7.786;2022-11-20T14:07:24;1.42;;;1.10;;
74108;SDS011;62466;47.566;7.786;2022-11-20T14:12:19;2.63;;;0.98;;
74108;SDS011;62466;47.566;7.786;2022-11-20T14:14:50;1.40;;;0.95;;
74108;SDS011;62466;47.566;7.786;2022-11-20T14:17:18;1.17;;;0.70;;
74108;SDS011;62466;47.566;7.786;2022-11-20T14:19:50;0.93;;;0.73;;
74108;SDS011;62466;47.566;7.786;2022-11-20T14:22:17;0.90;;;0.90;;
74108;SDS011;62466;47.566;7.786;2022-11-20T14:24:47;0.82;;;0.80;;
74108;SDS011;62466;47.566;7.786;2022-11-20T14:27:14;1.15;;;0.88;;
74108;SDS011;62466;47.566;7.786;2022-11-20T14:29:45;0.90;;;0.90;;
74108;SDS011;62466;47.566;7.786;2022-11-20T14:32:13;1.42;;;1.00;;
74108;SDS011;62466;47.566;7.786;2022-11-20T14:34:41;1.25;;;1.02;;
74108;SDS011;62466;47.566;7.786;2022-11-20T14:37:13;1.67;;;1.20;;
74108;SDS011;62466;47.566;7.786;2022-11-20T14:39:53;2.30;;;1.20;;
74108;SDS011;62466;47.566;7.786;2022-11-20T14:42:22;1.00;;;1.00;;
74108;SDS011;62466;47.566;7.786;2022-11-20T14:44:49;2.47;;;1.33;;
74108;SDS011;62466;47.566;7.786;2022-11-20T14:47:18;1.63;;;1.27;;
74108;SDS011;62466;47.566;7.786;2022-11-20T14:49:46;1.27;;;1.23;;
74108;SDS011;62466;47.566;7.786;2022-11-20T14:54:46;1.40;;;1.30;;
74108;SDS011;62466;47.566;7.786;2022-11-20T14:57:29;2.05;;;1.15;;
74108;SDS011;62466;47.566;7.786;2022-11-20T15:02:44;1.70;;;1.60;;
74108;SDS011;62466;47.566;7.786;2022-11-20T15:05:11;2.85;;;1.80;;
74108;SDS011;62466;47.566;7.786;2022-11-20T15:07:38;1.67;;;1.58;;
74108;SDS011;62466;47.566;7.786;2022-11-20T15:10:12;2.20;;;1.92;;
74108;SDS011;62466;47.566;7.786;2022-11-20T15:12:59;2.25;;;2.05;;
74108;SDS011;62466;47.566;7.786;2022-11-20T15:15:30;2.65;;;1.90;;
74108;SDS011;62466;47.566;7.786;2022-11-20T15:17:56;1.73;;;1.63;;
74108;SDS011;62466;47.566;7.786;2022-11-20T15:20:24;3.88;;;1.98;;
74108;SDS011;62466;47.566;7.786;2022-11-20T15:22:52;2.95;;;2.17;;
74108;SDS011;62466;47.566;7.786;2022-11-20T15:25:18;2.17;;;2.08;;
74108;SDS011;62466;47.566;7.786;2022-11-20T15:27:44;3.38;;;2.40;;
74108;SDS011;62466;47.566;7.786;2022-11-20T15:30:17;2.50;;;1.83;;
74108;SDS011;62466;47.566;7.786;2022-11-20T15:32:45;2.70;;;2.10;;
74108;SDS011;62466;47.566;7.786;2022-11-20T15:35:11;3.20;;;2.20;;
74108;SDS011;62466;47.566;7.786;2022-11-20T15:37:37;3.17;;;2.15;;
74108;SDS011;62466;47.566;7.786;2022-11-20T15:40:03;1.70;;;1.60;;
74108;SDS011;62466;47.566;7.786;2022-11-20T15:42:29;3.03;;;2.80;;
74108;SDS011;62466;47.566;7.786;2022-11-20T15:44:55;6.88;;;6.47;;
74108;SDS011;62466;47.566;7.786;2022-11-20T15:47:21;7.45;;;4.20;;
74108;SDS011;62466;47.566;7.786;2022-11-20T15:49:51;4.30;;;3.90;;
74108;SDS011;62466;47.566;7.786;2022-11-20T15:52:16;5.20;;;3.90;;
74108;SDS011;62466;47.566;7.786;2022-11-20T15:54:42;8.55;;;6.15;;
74108;SDS011;62466;47.566;7.786;2022-11-20T15:57:07;7.32;;;5.60;;
74108;SDS011;62466;47.566;7.786;2022-11-20T15:59:32;6.65;;;4.70;;
74108;SDS011;62466;47.566;7.786;2022-11-20T16:01:59;6.22;;;4.50;;
74108;SDS011;62466;47.566;7.786;2022-11-20T16:04:24;7.05;;;5.15;;
74108;SDS011;62466;47.566;7.786;2022-11-20T16:06:50;6.78;;;4.15;;
74108;SDS011;62466;47.566;7.786;2022-11-20T16:09:15;8.05;;;4.68;;
74108;SDS011;62466;47.566;7.786;2022-11-20T16:11:41;5.63;;;3.92;;
74108;SDS011;62466;47.566;7.786;2022-11-20T16:14:09;4.30;;;3.72;;
74108;SDS011;62466;47.566;7.786;2022-11-20T16:16:53;5.93;;;3.90;;
74108;SDS011;62466;47.566;7.786;2022-11-20T16:19:19;3.50;;;3.20;;
74108;SDS011;62466;47.566;7.786;2022-11-20T16:21:45;6.35;;;3.95;;
74108;SDS011;62466;47.566;7.786;2022-11-20T16:24:11;5.03;;;3.92;;
74108;SDS011;62466;47.566;7.786;2022-11-20T16:26:38;4.45;;;3.35;;
74108;SDS011;62466;47.566;7.786;2022-11-20T16:29:03;3.83;;;3.45;;
74108;SDS011;62466;47.566;7.786;2022-11-20T16:31:30;6.38;;;4.28;;
74108;SDS011;62466;47.566;7.786;2022-11-20T16:33:56;6.22;;;4.18;;
74108;SDS011;62466;47.566;7.786;2022-11-20T16:36:24;5.85;;;3.60;;
74108;SDS011;62466;47.566;7.786;2022-11-20T16:38:57;3.80;;;3.40;;
74108;SDS011;62466;47.566;7.786;2022-11-20T16:41:25;5.85;;;4.05;;
74108;SDS011;62466;47.566;7.786;2022-11-20T16:43:56;6.30;;;4.60;;
74108;SDS011;62466;47.566;7.786;2022-11-20T16:46:22;6.47;;;4.22;;
74108;SDS011;62466;47.566;7.786;2022-11-20T16:48:53;4.78;;;3.60;;
74108;SDS011;62466;47.566;7.786;2022-11-20T16:51:19;4.00;;;3.67;;
74108;SDS011;62466;47.566;7.786;2022-11-20T16:53:45;4.22;;;3.85;;
74108;SDS011;62466;47.566;7.786;2022-11-20T16:56:14;8.38;;;4.57;;
74108;SDS011;62466;47.566;7.786;2022-11-20T16:58:45;7.10;;;4.55;;
74108;SDS011;62466;47.566;7.786;2022-11-20T17:01:12;9.60;;;5.15;;
74108;SDS011;62466;47.566;7.786;2022-11-20T17:03:40;9.15;;;5.63;;
74108;SDS011;62466;47.566;7.786;2022-11-20T17:06:14;8.68;;;6.00;;
74108;SDS011;62466;47.566;7.786;2022-11-20T17:08:43;11.95;;;6.50;;
74108;SDS011;62466;47.566;7.786;2022-11-20T17:11:31;11.80;;;8.68;;
74108;SDS011;62466;47.566;7.786;2022-11-20T17:14:00;12.13;;;8.95;;